sensor_id;sensor_type;location;lat;lon;timestamp;pressure;altitude;pressure_sealevel;temperature;humidity
66801;BME280;53703;50.326;19.122;2023-04-29T00:00:50;98484.85;;;16.65;37.09
66801;BME280;53703;50.326;19.122;2023-04-29T00:03:45;98485.86;;;16.67;37.17
66801;BME280;53703;50.326;19.122;2023-04-29T00:06:39;98481.67;;;16.66;37.23
66801;BME280;53703;50.326;19.122;2023-04-29T00:09:33;98481.80;;;16.65;37.03
66801;BME280;53703;50.326;19.122;2023-04-29T00:12:28;98479.70;;;16.66;36.85
66801;BME280;53703;50.326;19.122;2023-04-29T00:15:23;98481.70;;;16.70;36.85
66801;BME280;53703;50.326;19.122;2023-04-29T00:18:17;98479.25;;;16.64;37.00
66801;BME280;53703;50.326;19.122;2023-04-29T00:21:11;98478.38;;;16.66;36.85
66801;BME280;53703;50.326;19.122;2023-04-29T00:24:05;98471.19;;;16.63;36.93
66801;BME280;53703;50.326;19.122;2023-04-29T00:26:59;98471.46;;;16.65;36.80
66801;BME280;53703;50.326;19.122;2023-04-29T00:29:54;98469.23;;;16.61;36.92
66801;BME280;53703;50.326;19.122;2023-04-29T00:32:48;98468.38;;;16.61;36.88
66801;BME280;53703;50.326;19.122;2023-04-29T00:35:42;98469.00;;;16.59;37.03
66801;BME280;53703;50.326;19.122;2023-04-29T00:38:36;98472.18;;;16.55;37.10
66801;BME280;53703;50.326;19.122;2023-04-29T00:41:30;98463.45;;;16.53;37.08
66801;BME280;53703;50.326;19.122;2023-04-29T00:44:25;98461.90;;;16.51;37.27
66801;BME280;53703;50.326;19.122;2023-04-29T00:47:19;98462.42;;;16.53;37.11
66801;BME280;53703;50.326;19.122;2023-04-29T00:50:13;98463.11;;;16.49;37.09
66801;BME280;53703;50.326;19.122;2023-04-29T00:53:07;98464.15;;;16.47;37.00
66801;BME280;53703;50.326;19.122;2023-04-29T00:56:02;98463.17;;;16.46;36.91
66801;BME280;53703;50.326;19.122;2023-04-29T00:58:57;98463.84;;;16.45;36.91
66801;BME280;53703;50.326;19.122;2023-04-29T01:01:51;98459.52;;;16.45;36.86
66801;BME280;53703;50.326;19.122;2023-04-29T01:04:46;98455.48;;;16.47;36.81
66801;BME280;53703;50.326;19.122;2023-04-29T01:07:51;98458.02;;;16.45;36.81
66801;BME280;53703;50.326;19.122;2023-04-29T01:10:54;98459.52;;;16.50;36.73
66801;BME280;53703;50.326;19.122;2023-04-29T01:14:12;98463.44;;;16.50;36.68
66801;BME280;53703;50.326;19.122;2023-04-29T01:17:11;98464.40;;;16.47;36.79
66801;BME280;53703;50.326;19.122;2023-04-29T01:20:09;98463.99;;;16.45;36.88
66801;BME280;53703;50.326;19.122;2023-04-29T01:23:03;98458.84;;;16.46;36.89
66801;BME280;53703;50.326;19.122;2023-04-29T01:25:57;98459.87;;;16.49;36.92
66801;BME280;53703;50.326;19.122;2023-04-29T01:28:56;98461.96;;;16.48;36.96
66801;BME280;53703;50.326;19.122;2023-04-29T01:32:03;98460.67;;;16.44;37.16
66801;BME280;53703;50.326;19.122;2023-04-29T01:35:10;98460.22;;;16.45;37.22
66801;BME280;53703;50.326;19.122;2023-04-29T01:38:14;98463.20;;;16.44;37.30
66801;BME280;53703;50.326;19.122;2023-04-29T01:41:15;98456.36;;;16.45;37.38
66801;BME280;53703;50.326;19.122;2023-04-29T01:44:14;98454.34;;;16.43;37.58
66801;BME280;53703;50.326;19.122;2023-04-29T01:47:12;98452.20;;;16.45;37.60
66801;BME280;53703;50.326;19.122;2023-04-29T01:50:07;98451.77;;;16.46;37.61
66801;BME280;53703;50.326;19.122;2023-04-29T01:53:01;98454.55;;;16.42;37.76
66801;BME280;53703;50.326;19.122;2023-04-29T01:55:55;98449.95;;;16.39;37.80
66801;BME280;53703;50.326;19.122;2023-04-29T01:58:49;98447.36;;;16.39;37.82
66801;BME280;53703;50.326;19.122;2023-04-29T02:01:43;98447.93;;;16.40;37.79
66801;BME280;53703;50.326;19.122;2023-04-29T02:04:37;98444.22;;;16.41;37.82
66801;BME280;53703;50.326;19.122;2023-04-29T02:07:30;98446.15;;;16.40;37.75
66801;BME280;53703;50.326;19.122;2023-04-29T02:10:24;98442.77;;;16.38;37.76
66801;BME280;53703;50.326;19.122;2023-04-29T02:13:18;98445.30;;;16.38;37.87
66801;BME280;53703;50.326;19.122;2023-04-29T02:16:13;98434.07;;;16.37;37.86
66801;BME280;53703;50.326;19.122;2023-04-29T02:19:07;98430.95;;;16.35;37.93
66801;BME280;53703;50.326;19.122;2023-04-29T02:22:01;98431.49;;;16.35;37.98
66801;BME280;53703;50.326;19.122;2023-04-29T02:24:55;98428.73;;;16.33;38.12
66801;BME280;53703;50.326;19.122;2023-04-29T02:27:49;98426.27;;;16.32;38.26
66801;BME280;53703;50.326;19.122;2023-04-29T02:30:43;98431.45;;;16.31;38.31
66801;BME280;53703;50.326;19.122;2023-04-29T02:33:37;98429.05;;;16.30;38.25
66801;BME280;53703;50.326;19.122;2023-04-29T02:36:30;98429.04;;;16.32;38.41
66801;BME280;53703;50.326;19.122;2023-04-29T02:39:24;98429.41;;;16.34;38.34
66801;BME280;53703;50.326;19.122;2023-04-29T02:42:19;98427.92;;;16.34;38.24
66801;BME280;53703;50.326;19.122;2023-04-29T02:45:14;98426.46;;;16.31;38.46
66801;BME280;53703;50.326;19.122;2023-04-29T02:48:08;98423.39;;;16.33;38.38
66801;BME280;53703;50.326;19.122;2023-04-29T02:51:02;98422.44;;;16.30;38.51
66801;BME280;53703;50.326;19.122;2023-04-29T02:53:56;98427.06;;;16.30;38.55
66801;BME280;53703;50.326;19.122;2023-04-29T02:56:50;98421.10;;;16.30;38.65
66801;BME280;53703;50.326;19.122;2023-04-29T02:59:44;98421.79;;;16.29;38.74
66801;BME280;53703;50.326;19.122;2023-04-29T03:02:38;98419.21;;;16.30;38.78
66801;BME280;53703;50.326;19.122;2023-04-29T03:05:32;98422.75;;;16.27;38.92
66801;BME280;53703;50.326;19.122;2023-04-29T03:08:26;98414.46;;;16.27;39.03
66801;BME280;53703;50.326;19.122;2023-04-29T03:11:20;98407.48;;;16.30;39.06
66801;BME280;53703;50.326;19.122;2023-04-29T03:14:16;98403.17;;;16.28;39.14
66801;BME280;53703;50.326;19.122;2023-04-29T03:17:09;98402.46;;;16.26;38.97
66801;BME280;53703;50.326;19.122;2023-04-29T03:20:04;98402.54;;;16.25;39.02
66801;BME280;53703;50.326;19.122;2023-04-29T03:22:59;98402.05;;;16.25;39.09
66801;BME280;53703;50.326;19.122;2023-04-29T03:25:54;98403.64;;;16.23;39.26
66801;BME280;53703;50.326;19.122;2023-04-29T03:28:48;98400.24;;;16.23;39.21
66801;BME280;53703;50.326;19.122;2023-04-29T03:31:41;98400.67;;;16.24;39.20
66801;BME280;53703;50.326;19.122;2023-04-29T03:34:36;98402.19;;;16.24;39.21
66801;BME280;53703;50.326;19.122;2023-04-29T03:37:30;98404.23;;;16.27;39.24
66801;BME280;53703;50.326;19.122;2023-04-29T03:40:24;98406.05;;;16.22;39.32
66801;BME280;53703;50.326;19.122;2023-04-29T03:43:17;98411.87;;;16.22;39.12
66801;BME280;53703;50.326;19.122;2023-04-29T03:46:11;98411.77;;;16.23;39.17
66801;BME280;53703;50.326;19.122;2023-04-29T03:49:05;98410.14;;;16.19;39.26
66801;BME280;53703;50.326;19.122;2023-04-29T03:51:59;98402.73;;;16.16;39.31
66801;BME280;53703;50.326;19.122;2023-04-29T03:54:53;98403.79;;;16.13;39.36
66801;BME280;53703;50.326;19.122;2023-04-29T03:57:47;98403.65;;;16.13;39.35
66801;BME280;53703;50.326;19.122;2023-04-29T04:00:41;98404.07;;;16.16;39.53
66801;BME280;53703;50.326;19.122;2023-04-29T04:03:34;98400.94;;;16.15;39.78
66801;BME280;53703;50.326;19.122;2023-04-29T04:06:28;98400.33;;;16.15;39.86
66801;BME280;53703;50.326;19.122;2023-04-29T04:09:22;98399.66;;;16.14;39.99
66801;BME280;53703;50.326;19.122;2023-04-29T04:12:16;98401.52;;;16.15;39.95
66801;BME280;53703;50.326;19.122;2023-04-29T04:15:11;98403.45;;;16.19;39.91
66801;BME280;53703;50.326;19.122;2023-04-29T04:18:05;98408.21;;;16.16;39.86
66801;BME280;53703;50.326;19.122;2023-04-29T04:21:05;98408.30;;;16.11;40.11
66801;BME280;53703;50.326;19.122;2023-04-29T04:23:59;98405.65;;;16.12;39.93
66801;BME280;53703;50.326;19.122;2023-04-29T04:26:53;98409.42;;;16.12;40.03
66801;BME280;53703;50.326;19.122;2023-04-29T04:29:47;98406.38;;;16.15;39.93
66801;BME280;53703;50.326;19.122;2023-04-29T04:32:40;98406.45;;;16.25;39.85
66801;BME280;53703;50.326;19.122;2023-04-29T04:35:35;98403.77;;;16.19;39.88
66801;BME280;53703;50.326;19.122;2023-04-29T04:38:29;98404.45;;;16.16;39.96
66801;BME280;53703;50.326;19.122;2023-04-29T04:41:25;98402.70;;;16.13;40.04
66801;BME280;53703;50.326;19.122;2023-04-29T04:44:18;98398.40;;;16.14;40.19
66801;BME280;53703;50.326;19.122;2023-04-29T04:47:13;98400.05;;;16.14;40.45
66801;BME280;53703;50.326;19.122;2023-04-29T04:50:09;98401.73;;;16.13;40.44
66801;BME280;53703;50.326;19.122;2023-04-29T04:53:03;98402.62;;;16.13;40.60
66801;BME280;53703;50.326;19.122;2023-04-29T04:56:01;98401.02;;;16.17;40.82
66801;BME280;53703;50.326;19.122;2023-04-29T04:58:54;98401.11;;;16.23;40.73
66801;BME280;53703;50.326;19.122;2023-04-29T05:01:48;98399.41;;;16.18;41.05
66801;BME280;53703;50.326;19.122;2023-04-29T05:04:42;98399.93;;;16.17;41.06
66801;BME280;53703;50.326;19.122;2023-04-29T05:07:36;98399.80;;;16.13;41.10
66801;BME280;53703;50.326;19.122;2023-04-29T05:10:30;98400.84;;;16.16;41.03
66801;BME280;53703;50.326;19.122;2023-04-29T05:13:25;98397.23;;;16.16;40.99
66801;BME280;53703;50.326;19.122;2023-04-29T05:16:19;98400.27;;;16.18;41.27
66801;BME280;53703;50.326;19.122;2023-04-29T05:19:13;98400.90;;;16.18;41.28
66801;BME280;53703;50.326;19.122;2023-04-29T05:22:07;98399.84;;;16.19;41.36
66801;BME280;53703;50.326;19.122;2023-04-29T05:25:01;98404.88;;;16.19;41.36
66801;BME280;53703;50.326;19.122;2023-04-29T05:27:55;98403.13;;;16.19;41.55
66801;BME280;53703;50.326;19.122;2023-04-29T05:30:51;98403.17;;;16.15;41.66
66801;BME280;53703;50.326;19.122;2023-04-29T05:33:44;98404.25;;;16.17;41.72
66801;BME280;53703;50.326;19.122;2023-04-29T05:36:38;98404.92;;;16.18;41.86
66801;BME280;53703;50.326;19.122;2023-04-29T05:39:32;98402.25;;;16.14;42.07
66801;BME280;53703;50.326;19.122;2023-04-29T05:42:26;98403.50;;;16.23;41.94
66801;BME280;53703;50.326;19.122;2023-04-29T05:45:20;98404.14;;;16.31;42.07
66801;BME280;53703;50.326;19.122;2023-04-29T05:48:14;98406.71;;;16.35;42.22
66801;BME280;53703;50.326;19.122;2023-04-29T05:51:08;98408.16;;;16.41;42.92
66801;BME280;53703;50.326;19.122;2023-04-29T05:54:02;98410.09;;;16.43;43.82
66801;BME280;53703;50.326;19.122;2023-04-29T05:56:56;98412.42;;;16.54;42.45
66801;BME280;53703;50.326;19.122;2023-04-29T05:59:50;98410.96;;;16.45;43.07
66801;BME280;53703;50.326;19.122;2023-04-29T06:02:46;98407.68;;;16.36;43.60
66801;BME280;53703;50.326;19.122;2023-04-29T06:05:50;98410.96;;;16.40;44.22
66801;BME280;53703;50.326;19.122;2023-04-29T06:08:44;98411.77;;;16.45;44.42
66801;BME280;53703;50.326;19.122;2023-04-29T06:11:38;98410.02;;;16.51;43.98
66801;BME280;53703;50.326;19.122;2023-04-29T06:14:32;98405.73;;;16.47;44.14
66801;BME280;53703;50.326;19.122;2023-04-29T06:17:26;98405.29;;;16.37;44.41
66801;BME280;53703;50.326;19.122;2023-04-29T06:20:21;98404.46;;;16.36;44.37
66801;BME280;53703;50.326;19.122;2023-04-29T06:23:14;98401.42;;;16.35;44.22
66801;BME280;53703;50.326;19.122;2023-04-29T06:26:08;98402.48;;;16.41;44.04
66801;BME280;53703;50.326;19.122;2023-04-29T06:29:02;98406.79;;;16.61;43.41
66801;BME280;53703;50.326;19.122;2023-04-29T06:31:56;98406.64;;;16.40;44.99
66801;BME280;53703;50.326;19.122;2023-04-29T06:34:50;98413.02;;;16.51;44.31
66801;BME280;53703;50.326;19.122;2023-04-29T06:37:45;98408.77;;;16.41;44.62
66801;BME280;53703;50.326;19.122;2023-04-29T06:40:39;98405.58;;;16.37;44.92
66801;BME280;53703;50.326;19.122;2023-04-29T06:43:32;98405.12;;;16.35;44.94
66801;BME280;53703;50.326;19.122;2023-04-29T06:46:27;98406.39;;;16.35;44.99
66801;BME280;53703;50.326;19.122;2023-04-29T06:49:21;98407.04;;;16.30;45.40
66801;BME280;53703;50.326;19.122;2023-04-29T06:52:16;98406.69;;;16.32;45.32
66801;BME280;53703;50.326;19.122;2023-04-29T06:55:11;98407.39;;;16.31;45.36
66801;BME280;53703;50.326;19.122;2023-04-29T06:58:05;98407.86;;;16.32;45.30
66801;BME280;53703;50.326;19.122;2023-04-29T07:00:59;98405.67;;;16.35;45.22
66801;BME280;53703;50.326;19.122;2023-04-29T07:03:55;98403.52;;;16.33;45.45
66801;BME280;53703;50.326;19.122;2023-04-29T07:06:50;98401.80;;;16.34;45.56
66801;BME280;53703;50.326;19.122;2023-04-29T07:09:45;98408.52;;;16.35;45.52
66801;BME280;53703;50.326;19.122;2023-04-29T07:12:42;98406.98;;;16.31;45.80
66801;BME280;53703;50.326;19.122;2023-04-29T07:15:37;98404.28;;;16.35;45.76
66801;BME280;53703;50.326;19.122;2023-04-29T07:18:31;98406.85;;;16.35;45.81
66801;BME280;53703;50.326;19.122;2023-04-29T07:21:25;98409.14;;;16.32;45.71
66801;BME280;53703;50.326;19.122;2023-04-29T07:24:18;98402.98;;;16.32;45.90
66801;BME280;53703;50.326;19.122;2023-04-29T07:27:14;98403.23;;;16.27;46.34
66801;BME280;53703;50.326;19.122;2023-04-29T07:30:09;98399.02;;;16.24;46.67
66801;BME280;53703;50.326;19.122;2023-04-29T07:33:03;98397.84;;;16.18;47.03
66801;BME280;53703;50.326;19.122;2023-04-29T07:35:57;98400.98;;;16.16;47.28
66801;BME280;53703;50.326;19.122;2023-04-29T07:38:51;98401.77;;;16.13;47.62
66801;BME280;53703;50.326;19.122;2023-04-29T07:41:45;98400.90;;;16.16;47.44
66801;BME280;53703;50.326;19.122;2023-04-29T07:44:39;98409.82;;;16.14;47.67
66801;BME280;53703;50.326;19.122;2023-04-29T07:47:33;98409.41;;;16.16;48.02
66801;BME280;53703;50.326;19.122;2023-04-29T07:50:27;98411.41;;;16.17;48.04
66801;BME280;53703;50.326;19.122;2023-04-29T07:53:20;98414.89;;;16.18;48.12
66801;BME280;53703;50.326;19.122;2023-04-29T07:56:14;98412.14;;;16.21;48.40
66801;BME280;53703;50.326;19.122;2023-04-29T07:59:09;98421.05;;;16.24;48.31
66801;BME280;53703;50.326;19.122;2023-04-29T08:02:03;98419.91;;;16.22;48.20
66801;BME280;53703;50.326;19.122;2023-04-29T08:04:57;98422.63;;;16.16;48.40
66801;BME280;53703;50.326;19.122;2023-04-29T08:07:53;98417.79;;;16.15;48.74
66801;BME280;53703;50.326;19.122;2023-04-29T08:10:47;98417.55;;;16.15;48.61
66801;BME280;53703;50.326;19.122;2023-04-29T08:13:41;98421.26;;;16.12;48.68
66801;BME280;53703;50.326;19.122;2023-04-29T08:16:35;98418.06;;;16.14;48.96
66801;BME280;53703;50.326;19.122;2023-04-29T08:19:29;98418.14;;;16.13;48.88
66801;BME280;53703;50.326;19.122;2023-04-29T08:22:24;98417.23;;;16.15;48.90
66801;BME280;53703;50.326;19.122;2023-04-29T08:25:18;98414.65;;;16.15;48.95
66801;BME280;53703;50.326;19.122;2023-04-29T08:28:12;98413.10;;;16.19;48.74
66801;BME280;53703;50.326;19.122;2023-04-29T08:31:06;98408.92;;;16.16;49.11
66801;BME280;53703;50.326;19.122;2023-04-29T08:34:02;98405.95;;;16.24;48.96
66801;BME280;53703;50.326;19.122;2023-04-29T08:36:57;98401.43;;;16.37;47.70
66801;BME280;53703;50.326;19.122;2023-04-29T08:39:51;98404.73;;;16.45;48.33
66801;BME280;53703;50.326;19.122;2023-04-29T08:42:45;98403.72;;;16.38;49.06
66801;BME280;53703;50.326;19.122;2023-04-29T08:45:41;98404.31;;;16.57;49.17
66801;BME280;53703;50.326;19.122;2023-04-29T08:48:37;98403.67;;;16.54;49.73
66801;BME280;53703;50.326;19.122;2023-04-29T08:51:36;98405.73;;;16.62;49.99
66801;BME280;53703;50.326;19.122;2023-04-29T08:54:31;98405.55;;;16.90;48.92
66801;BME280;53703;50.326;19.122;2023-04-29T08:57:26;98395.96;;;17.09;48.33
66801;BME280;53703;50.326;19.122;2023-04-29T09:00:21;98391.92;;;17.36;47.32
66801;BME280;53703;50.326;19.122;2023-04-29T09:03:21;98391.02;;;17.30;47.58
66801;BME280;53703;50.326;19.122;2023-04-29T09:06:17;98391.27;;;17.35;46.63
66801;BME280;53703;50.326;19.122;2023-04-29T09:09:12;98390.96;;;17.30;47.09
66801;BME280;53703;50.326;19.122;2023-04-29T09:12:08;98387.52;;;17.36;47.24
66801;BME280;53703;50.326;19.122;2023-04-29T09:15:02;98384.30;;;17.40;47.09
66801;BME280;53703;50.326;19.122;2023-04-29T09:17:55;98391.41;;;17.43;46.65
66801;BME280;53703;50.326;19.122;2023-04-29T09:20:49;98390.14;;;17.29;48.21
66801;BME280;53703;50.326;19.122;2023-04-29T09:23:44;98392.80;;;17.28;47.96
66801;BME280;53703;50.326;19.122;2023-04-29T09:26:43;98392.30;;;17.41;47.90
66801;BME280;53703;50.326;19.122;2023-04-29T09:29:37;98392.77;;;17.36;48.18
66801;BME280;53703;50.326;19.122;2023-04-29T09:32:30;98391.16;;;17.35;48.07
66801;BME280;53703;50.326;19.122;2023-04-29T09:35:28;98385.25;;;17.52;47.55
66801;BME280;53703;50.326;19.122;2023-04-29T09:38:22;98384.39;;;17.21;48.61
66801;BME280;53703;50.326;19.122;2023-04-29T09:41:16;98381.30;;;17.23;48.27
66801;BME280;53703;50.326;19.122;2023-04-29T09:44:11;98382.03;;;17.50;47.40
66801;BME280;53703;50.326;19.122;2023-04-29T09:47:07;98378.06;;;17.60;46.86
66801;BME280;53703;50.326;19.122;2023-04-29T09:50:12;98376.81;;;17.37;47.35
66801;BME280;53703;50.326;19.122;2023-04-29T09:53:09;98375.38;;;17.52;47.14
66801;BME280;53703;50.326;19.122;2023-04-29T09:56:04;98370.45;;;17.35;47.78
66801;BME280;53703;50.326;19.122;2023-04-29T09:59:19;98378.05;;;17.60;46.85
66801;BME280;53703;50.326;19.122;2023-04-29T10:02:16;98376.30;;;17.69;46.50
66801;BME280;53703;50.326;19.122;2023-04-29T10:05:11;98374.19;;;17.39;47.26
66801;BME280;53703;50.326;19.122;2023-04-29T10:08:06;98377.44;;;17.20;47.93
66801;BME280;53703;50.326;19.122;2023-04-29T10:11:03;98374.01;;;17.05;48.19
66801;BME280;53703;50.326;19.122;2023-04-29T10:13:58;98372.08;;;17.01;48.30
66801;BME280;53703;50.326;19.122;2023-04-29T10:17:01;98373.38;;;17.00;48.27
66801;BME280;53703;50.326;19.122;2023-04-29T10:20:03;98375.70;;;16.98;48.35
66801;BME280;53703;50.326;19.122;2023-04-29T10:22:59;98375.65;;;17.20;47.40
66801;BME280;53703;50.326;19.122;2023-04-29T10:25:55;98371.55;;;17.23;47.17
66801;BME280;53703;50.326;19.122;2023-04-29T10:28:50;98369.70;;;17.08;47.63
66801;BME280;53703;50.326;19.122;2023-04-29T10:31:47;98370.95;;;17.03;47.86
66801;BME280;53703;50.326;19.122;2023-04-29T10:34:42;98368.15;;;17.18;47.35
66801;BME280;53703;50.326;19.122;2023-04-29T10:37:36;98370.66;;;17.00;47.85
66801;BME280;53703;50.326;19.122;2023-04-29T10:40:44;98366.48;;;17.00;47.69
66801;BME280;53703;50.326;19.122;2023-04-29T10:43:39;98371.15;;;16.93;47.81
66801;BME280;53703;50.326;19.122;2023-04-29T10:46:33;98367.54;;;16.96;47.83
66801;BME280;53703;50.326;19.122;2023-04-29T10:53:02;98367.07;;;16.99;47.65
66801;BME280;53703;50.326;19.122;2023-04-29T10:56:04;98365.44;;;16.92;47.80
66801;BME280;53703;50.326;19.122;2023-04-29T10:59:01;98366.86;;;17.00;47.61
66801;BME280;53703;50.326;19.122;2023-04-29T11:01:56;98367.77;;;16.91;47.76
66801;BME280;53703;50.326;19.122;2023-04-29T11:05:11;98364.80;;;16.97;47.54
66801;BME280;53703;50.326;19.122;2023-04-29T11:08:37;98368.17;;;16.94;47.37
66801;BME280;53703;50.326;19.122;2023-04-29T11:11:47;98371.57;;;16.92;47.69
66801;BME280;53703;50.326;19.122;2023-04-29T11:15:05;98372.34;;;16.91;47.52
66801;BME280;53703;50.326;19.122;2023-04-29T11:18:02;98373.77;;;16.97;47.24
66801;BME280;53703;50.326;19.122;2023-04-29T11:21:15;98367.44;;;16.96;47.38
66801;BME280;53703;50.326;19.122;2023-04-29T11:24:10;98361.43;;;17.16;47.19
66801;BME280;53703;50.326;19.122;2023-04-29T11:27:04;98363.79;;;17.03;47.43
66801;BME280;53703;50.326;19.122;2023-04-29T11:30:01;98362.44;;;17.10;47.05
66801;BME280;53703;50.326;19.122;2023-04-29T11:33:01;98358.64;;;17.10;47.02
66801;BME280;53703;50.326;19.122;2023-04-29T11:35:55;98360.98;;;17.01;47.29
66801;BME280;53703;50.326;19.122;2023-04-29T11:38:49;98355.30;;;17.05;47.14
66801;BME280;53703;50.326;19.122;2023-04-29T11:41:43;98358.48;;;17.05;47.13
66801;BME280;53703;50.326;19.122;2023-04-29T11:44:38;98354.48;;;17.02;47.22
66801;BME280;53703;50.326;19.122;2023-04-29T11:47:15;98356.52;;;17.12;46.98
66801;BME280;53703;50.326;19.122;2023-04-29T11:50:10;98353.52;;;17.15;46.65
66801;BME280;53703;50.326;19.122;2023-04-29T11:53:05;98351.88;;;17.16;47.09
66801;BME280;53703;50.326;19.122;2023-04-29T11:56:00;98357.20;;;17.29;46.38
66801;BME280;53703;50.326;19.122;2023-04-29T11:58:58;98355.83;;;17.42;46.20
66801;BME280;53703;50.326;19.122;2023-04-29T12:01:53;98353.27;;;17.50;46.11
66801;BME280;53703;50.326;19.122;2023-04-29T12:04:50;98358.69;;;17.40;46.30
66801;BME280;53703;50.326;19.122;2023-04-29T12:07:44;98360.60;;;17.47;46.16
66801;BME280;53703;50.326;19.122;2023-04-29T12:10:39;98360.85;;;17.35;46.07
66801;BME280;53703;50.326;19.122;2023-04-29T12:13:34;98361.16;;;17.12;47.01
66801;BME280;53703;50.326;19.122;2023-04-29T12:16:32;98367.36;;;16.96;47.37
66801;BME280;53703;50.326;19.122;2023-04-29T12:19:26;98371.45;;;16.95;47.37
66801;BME280;53703;50.326;19.122;2023-04-29T12:22:21;98379.61;;;16.89;47.50
66801;BME280;53703;50.326;19.122;2023-04-29T12:25:16;98380.98;;;16.90;47.68
66801;BME280;53703;50.326;19.122;2023-04-29T12:28:14;98382.55;;;16.95;47.52
66801;BME280;53703;50.326;19.122;2023-04-29T12:31:09;98384.20;;;16.84;47.96
66801;BME280;53703;50.326;19.122;2023-04-29T12:34:05;98382.63;;;16.84;47.92
66801;BME280;53703;50.326;19.122;2023-04-29T12:37:02;98383.71;;;16.87;48.01
66801;BME280;53703;50.326;19.122;2023-04-29T12:39:57;98382.71;;;16.98;47.72
66801;BME280;53703;50.326;19.122;2023-04-29T12:42:53;98377.02;;;16.95;47.91
66801;BME280;53703;50.326;19.122;2023-04-29T12:45:47;98372.17;;;16.93;48.13
66801;BME280;53703;50.326;19.122;2023-04-29T12:48:42;98366.37;;;16.97;48.03
66801;BME280;53703;50.326;19.122;2023-04-29T12:51:37;98364.95;;;17.10;48.39
66801;BME280;53703;50.326;19.122;2023-04-29T12:54:31;98361.40;;;17.13;48.04
66801;BME280;53703;50.326;19.122;2023-04-29T12:57:29;98359.83;;;17.15;48.01
66801;BME280;53703;50.326;19.122;2023-04-29T13:00:24;98353.99;;;17.30;47.64
66801;BME280;53703;50.326;19.122;2023-04-29T13:03:18;98350.02;;;17.26;47.77
66801;BME280;53703;50.326;19.122;2023-04-29T13:06:14;98347.85;;;17.24;47.81
66801;BME280;53703;50.326;19.122;2023-04-29T13:09:02;98342.28;;;17.31;47.53
66801;BME280;53703;50.326;19.122;2023-04-29T13:11:56;98339.70;;;17.32;47.24
66801;BME280;53703;50.326;19.122;2023-04-29T13:14:51;98335.23;;;17.32;47.31
66801;BME280;53703;50.326;19.122;2023-04-29T13:17:49;98335.13;;;17.35;46.98
66801;BME280;53703;50.326;19.122;2023-04-29T13:20:44;98333.23;;;17.26;47.84
66801;BME280;53703;50.326;19.122;2023-04-29T13:23:39;98331.48;;;17.10;49.16
66801;BME280;53703;50.326;19.122;2023-04-29T13:26:33;98334.92;;;17.30;46.05
66801;BME280;53703;50.326;19.122;2023-04-29T13:29:27;98331.96;;;17.34;47.49
66801;BME280;53703;50.326;19.122;2023-04-29T13:32:21;98328.17;;;17.30;46.26
66801;BME280;53703;50.326;19.122;2023-04-29T13:35:16;98324.64;;;17.28;47.32
66801;BME280;53703;50.326;19.122;2023-04-29T13:38:10;98314.29;;;17.36;47.06
66801;BME280;53703;50.326;19.122;2023-04-29T13:41:04;98317.27;;;17.35;47.11
66801;BME280;53703;50.326;19.122;2023-04-29T13:44:06;98320.38;;;17.34;47.28
66801;BME280;53703;50.326;19.122;2023-04-29T13:47:20;98321.92;;;17.30;47.73
66801;BME280;53703;50.326;19.122;2023-04-29T13:50:20;98314.77;;;17.21;48.38
66801;BME280;53703;50.326;19.122;2023-04-29T13:53:34;98315.86;;;17.07;49.03
66801;BME280;53703;50.326;19.122;2023-04-29T13:56:31;98317.36;;;16.85;49.92
66801;BME280;53703;50.326;19.122;2023-04-29T13:59:28;98312.84;;;17.03;49.27
66801;BME280;53703;50.326;19.122;2023-04-29T14:02:37;98316.95;;;17.17;48.41
66801;BME280;53703;50.326;19.122;2023-04-29T14:05:31;98322.45;;;17.23;48.06
66801;BME280;53703;50.326;19.122;2023-04-29T14:08:26;98320.06;;;17.28;47.86
66801;BME280;53703;50.326;19.122;2023-04-29T14:11:20;98318.44;;;17.23;48.01
66801;BME280;53703;50.326;19.122;2023-04-29T14:14:15;98319.73;;;17.25;47.92
66801;BME280;53703;50.326;19.122;2023-04-29T14:17:09;98318.16;;;17.24;47.78
66801;BME280;53703;50.326;19.122;2023-04-29T14:20:03;98316.13;;;17.16;47.87
66801;BME280;53703;50.326;19.122;2023-04-29T14:22:58;98316.34;;;17.33;47.14
66801;BME280;53703;50.326;19.122;2023-04-29T14:25:52;98322.64;;;17.30;46.66
66801;BME280;53703;50.326;19.122;2023-04-29T14:29:03;98325.77;;;17.25;45.86
66801;BME280;53703;50.326;19.122;2023-04-29T14:31:57;98327.13;;;17.24;45.62
66801;BME280;53703;50.326;19.122;2023-04-29T14:34:51;98326.05;;;17.25;46.56
66801;BME280;53703;50.326;19.122;2023-04-29T14:37:46;98326.02;;;17.26;45.48
66801;BME280;53703;50.326;19.122;2023-04-29T14:40:42;98326.60;;;17.22;46.02
66801;BME280;53703;50.326;19.122;2023-04-29T14:43:37;98321.40;;;17.16;48.39
66801;BME280;53703;50.326;19.122;2023-04-29T14:46:33;98316.59;;;17.22;48.96
66801;BME280;53703;50.326;19.122;2023-04-29T14:49:27;98316.33;;;17.21;49.52
66801;BME280;53703;50.326;19.122;2023-04-29T14:52:23;98312.27;;;17.31;48.15
66801;BME280;53703;50.326;19.122;2023-04-29T14:55:17;98318.52;;;17.23;46.89
66801;BME280;53703;50.326;19.122;2023-04-29T14:58:11;98316.55;;;17.20;45.68
66801;BME280;53703;50.326;19.122;2023-04-29T15:01:05;98319.77;;;17.19;45.55
66801;BME280;53703;50.326;19.122;2023-04-29T15:04:00;98320.11;;;17.18;45.61
66801;BME280;53703;50.326;19.122;2023-04-29T15:06:55;98321.27;;;17.20;46.70
66801;BME280;53703;50.326;19.122;2023-04-29T15:09:49;98322.62;;;17.17;50.18
66801;BME280;53703;50.326;19.122;2023-04-29T15:12:43;98320.30;;;17.16;49.58
66801;BME280;53703;50.326;19.122;2023-04-29T15:15:38;98321.15;;;17.21;50.41
66801;BME280;53703;50.326;19.122;2023-04-29T15:18:32;98324.49;;;17.20;50.67
66801;BME280;53703;50.326;19.122;2023-04-29T15:21:27;98330.05;;;17.21;49.42